Time;durP1;ratioP1;P1;durP2;ratioP2;P2;SDS_P1;SDS_P2;PMS_P1;PMS_P2;Temp;Humidity;BMP_temperature;BMP_pressure;BME280_temperature;BME280_humidity;BME280_pressure;Samples;Min_cycle;Max_cycle;Signal;HPM_P1;HPM_P2
2021/12/07 00:01:40;;;;;;;4.13;3.30;;;3.60;99.90;;;;;;5088066;28;20437;-67
2021/12/07 00:04:07;;;;;;;4.00;3.30;;;3.60;99.90;;;;;;5084611;28;20514;-67
2021/12/07 00:06:34;;;;;;;6.97;3.93;;;3.50;99.90;;;;;;5067583;28;20168;-67
2021/12/07 00:09:00;;;;;;;6.00;4.10;;;3.60;99.90;;;;;;5077530;28;20438;-69
2021/12/07 00:11:29;;;;;;;4.10;3.50;;;3.60;99.90;;;;;;5085509;28;20804;-68
2021/12/07 00:13:57;;;;;;;4.57;3.47;;;3.60;99.90;;;;;;5086226;28;20172;-67
2021/12/07 00:16:24;;;;;;;4.20;3.53;;;3.90;99.90;;;;;;5085283;28;20567;-69
2021/12/07 00:18:49;;;;;;;5.47;3.93;;;3.40;99.90;;;;;;5089400;28;20461;-69
2021/12/07 00:21:17;;;;;;;5.37;3.53;;;3.40;99.90;;;;;;5087209;28;20433;-66
2021/12/07 00:23:44;;;;;;;5.30;3.60;;;3.30;99.90;;;;;;5069849;28;20642;-70
2021/12/07 00:26:12;;;;;;;11.73;3.90;;;3.20;99.90;;;;;;5083729;28;20417;-67
2021/12/07 00:28:38;;;;;;;4.90;3.80;;;3.60;99.90;;;;;;5090702;28;20482;-72
2021/12/07 00:31:15;;;;;;;4.27;3.50;;;3.10;99.90;;;;;;5088678;28;20724;-67
2021/12/07 00:33:51;;;;;;;4.60;3.13;;;3.20;99.90;;;;;;5078395;28;20428;-69
2021/12/07 00:36:17;;;;;;;4.10;2.80;;;3.40;99.90;;;;;;5084055;28;20480;-68
2021/12/07 00:38:43;;;;;;;5.03;3.97;;;3.00;99.90;;;;;;5088085;28;20472;-69
2021/12/07 00:41:09;;;;;;;4.17;3.40;;;3.00;99.90;;;;;;5087306;28;20471;-67
2021/12/07 00:43:34;;;;;;;4.87;3.50;;;3.00;99.90;;;;;;5088299;28;20172;-67
2021/12/07 00:46:01;;;;;;;6.13;3.97;;;2.80;99.90;;;;;;5083509;28;20653;-70
2021/12/07 00:48:28;;;;;;;5.30;3.90;;;3.10;99.90;;;;;;5089208;28;20548;-67
2021/12/07 00:50:57;;;;;;;4.97;3.90;;;3.00;99.90;;;;;;5095516;28;20441;-70
2021/12/07 00:53:26;;;;;;;6.07;4.03;;;3.30;99.90;;;;;;5089771;28;20490;-66
2021/12/07 00:55:56;;;;;;;5.80;3.63;;;3.30;99.90;;;;;;5077966;28;20553;-67
2021/12/07 00:58:24;;;;;;;3.57;3.00;;;3.20;99.90;;;;;;5072930;28;20795;-66
2021/12/07 01:01:12;;;;;;;3.87;3.10;;;3.20;99.90;;;;;;5076118;28;20415;-68
2021/12/07 01:03:39;;;;;;;5.67;3.07;;;3.20;99.90;;;;;;5072055;28;20489;-72
2021/12/07 01:09:29;;;;;;;4.43;3.27;;;3.20;99.90;;;;;;5084563;28;20450;-69
2021/12/07 01:25:14;;;;;;;3.80;2.77;;;3.10;99.90;;;;;;5088929;28;20428;-67
2021/12/07 01:27:40;;;;;;;3.20;2.90;;;3.20;99.90;;;;;;5088223;28;20462;-66
2021/12/07 01:30:17;;;;;;;3.37;2.77;;;3.20;99.90;;;;;;5081452;28;20415;-67
2021/12/07 01:35:44;;;;;;;7.60;3.07;;;3.50;99.90;;;;;;5070945;28;20554;-66
2021/12/07 01:41:15;;;;;;;3.80;2.93;;;3.30;99.90;;;;;;5093721;28;20409;-70
2021/12/07 01:59:57;;;;;;;4.27;3.77;;;3.50;99.90;;;;;;5079889;28;20421;-67
2021/12/07 02:02:26;;;;;;;4.87;3.50;;;3.50;99.90;;;;;;5069621;28;20423;-67
2021/12/07 02:04:52;;;;;;;3.50;3.20;;;3.30;99.90;;;;;;5079966;28;20454;-69
2021/12/07 02:07:18;;;;;;;3.40;3.10;;;3.50;99.90;;;;;;5086161;28;20410;-67
2021/12/07 02:09:49;;;;;;;4.97;3.43;;;4.00;99.90;;;;;;5078407;28;20454;-67
2021/12/07 02:12:15;;;;;;;4.53;3.33;;;3.60;99.90;;;;;;5096207;28;21161;-67
2021/12/07 02:14:42;;;;;;;4.77;3.87;;;3.60;99.90;;;;;;5098537;28;20441;-69
2021/12/07 02:17:10;;;;;;;5.27;3.63;;;3.60;99.90;;;;;;5088910;28;20405;-69
2021/12/07 02:19:37;;;;;;;4.53;3.40;;;3.50;99.90;;;;;;5073431;28;20580;-67
2021/12/07 02:22:03;;;;;;;5.43;3.53;;;3.60;99.90;;;;;;5068738;28;20722;-69
2021/12/07 02:24:30;;;;;;;5.07;3.70;;;3.60;99.90;;;;;;5075881;28;20527;-67
2021/12/07 02:26:56;;;;;;;4.23;3.60;;;4.10;99.90;;;;;;5068552;28;20445;-67
2021/12/07 02:29:22;;;;;;;3.60;2.77;;;3.50;99.90;;;;;;5076026;28;20449;-69
2021/12/07 02:31:50;;;;;;;3.90;3.40;;;3.50;99.90;;;;;;5070201;28;20531;-74
2021/12/07 02:34:16;;;;;;;3.77;3.00;;;3.50;99.90;;;;;;5083725;28;20449;-67
2021/12/07 02:36:42;;;;;;;3.43;2.83;;;3.60;99.90;;;;;;5074084;28;20419;-68
2021/12/07 02:39:09;;;;;;;4.37;3.37;;;3.60;99.90;;;;;;5071959;28;20823;-68
2021/12/07 02:41:36;;;;;;;4.13;3.40;;;3.60;99.90;;;;;;5086937;28;20402;-66
2021/12/07 02:44:02;;;;;;;4.63;3.50;;;3.80;99.90;;;;;;5092521;28;20410;-68
2021/12/07 02:46:28;;;;;;;4.90;3.60;;;3.70;99.90;;;;;;5087211;28;20497;-67
2021/12/07 02:48:53;;;;;;;4.50;3.53;;;3.70;99.90;;;;;;5074472;28;20533;-70
2021/12/07 02:51:19;;;;;;;3.93;3.43;;;3.60;99.90;;;;;;5065403;28;20555;-70
2021/12/07 02:53:47;;;;;;;3.83;3.37;;;3.60;99.90;;;;;;5077359;28;20179;-68
2021/12/07 02:56:13;;;;;;;3.60;3.00;;;3.60;99.90;;;;;;5086997;28;20336;-68
2021/12/07 02:58:42;;;;;;;3.90;3.30;;;3.60;99.90;;;;;;5087283;28;20533;-68
2021/12/07 03:01:14;;;;;;;3.57;3.00;;;3.80;99.90;;;;;;5072195;28;20492;-70
2021/12/07 03:03:52;;;;;;;2.93;2.50;;;3.50;99.90;;;;;;5073474;28;20406;-68
2021/12/07 03:06:45;;;;;;;3.20;2.77;;;3.50;99.90;;;;;;5086659;28;20483;-67
2021/12/07 03:26:03;;;;;;;3.60;3.03;;;3.40;99.90;;;;;;5086004;28;20464;-68
2021/12/07 03:28:30;;;;;;;4.10;3.10;;;3.60;99.90;;;;;;5084942;28;20437;-69
2021/12/07 03:30:56;;;;;;;3.90;3.40;;;3.70;99.90;;;;;;5081651;28;20410;-70
2021/12/07 03:33:21;;;;;;;3.77;3.33;;;4.10;99.90;;;;;;5077441;28;20791;-68
2021/12/07 03:35:47;;;;;;;4.90;2.80;;;3.80;99.90;;;;;;5085018;28;20184;-67
2021/12/07 03:38:12;;;;;;;4.47;3.40;;;3.60;99.90;;;;;;5086499;28;20187;-67
2021/12/07 03:40:39;;;;;;;3.17;2.70;;;3.50;99.90;;;;;;5077881;28;20179;-67
2021/12/07 03:43:06;;;;;;;4.03;3.00;;;3.50;99.90;;;;;;5086332;28;20662;-71
2021/12/07 03:45:32;;;;;;;6.63;2.83;;;3.40;99.90;;;;;;5066328;28;20942;-67
2021/12/07 03:47:59;;;;;;;7.93;3.63;;;3.60;99.90;;;;;;5079809;28;20467;-68
2021/12/07 03:50:25;;;;;;;3.40;3.10;;;3.40;99.90;;;;;;5087945;28;20481;-67
2021/12/07 03:52:52;;;;;;;6.40;3.07;;;3.40;99.90;;;;;;5085340;28;20422;-69
2021/12/07 03:55:18;;;;;;;4.53;2.70;;;3.40;99.90;;;;;;5087158;28;20477;-68
2021/12/07 03:57:44;;;;;;;3.70;3.00;;;3.30;99.90;;;;;;5086022;28;20470;-69
2021/12/07 04:00:12;;;;;;;2.70;1.93;;;3.30;99.90;;;;;;5086278;28;20481;-73
2021/12/07 04:02:40;;;;;;;3.33;2.40;;;3.40;99.90;;;;;;5085268;28;20164;-70
2021/12/07 04:05:14;;;;;;;3.33;2.53;;;3.40;99.90;;;;;;5084182;28;20958;-67
2021/12/07 04:07:40;;;;;;;2.87;2.57;;;3.40;99.90;;;;;;5086783;28;20418;-67
2021/12/07 04:10:07;;;;;;;3.10;2.50;;;3.40;99.90;;;;;;5087697;28;20514;-69
2021/12/07 04:12:34;;;;;;;2.50;2.30;;;3.40;99.90;;;;;;5097414;28;20413;-70
2021/12/07 04:14:59;;;;;;;6.80;2.07;;;3.80;99.90;;;;;;5107013;28;20981;-66
2021/12/07 04:17:25;;;;;;;3.47;2.73;;;3.40;99.90;;;;;;5098976;28;20426;-67
2021/12/07 04:19:50;;;;;;;3.03;2.33;;;3.40;99.90;;;;;;5087309;28;20203;-71
2021/12/07 04:22:16;;;;;;;3.20;2.60;;;3.90;99.90;;;;;;5067526;28;20517;-66
2021/12/07 04:24:42;;;;;;;2.60;2.40;;;4.70;99.90;;;;;;5070509;28;20182;-66
2021/12/07 04:27:08;;;;;;;2.30;2.10;;;3.60;99.90;;;;;;5088988;28;20647;-66
2021/12/07 04:29:33;;;;;;;2.40;2.20;;;3.80;99.90;;;;;;5081323;28;20204;-67
2021/12/07 04:31:59;;;;;;;2.30;2.10;;;4.00;99.90;;;;;;5108267;28;20203;-68
2021/12/07 04:34:24;;;;;;;6.33;3.13;;;3.90;99.90;;;;;;5075683;28;20180;-69
2021/12/07 04:36:50;;;;;;;3.60;2.20;;;3.60;99.90;;;;;;5068624;28;20352;-67
2021/12/07 04:39:16;;;;;;;3.43;2.17;;;3.60;99.90;;;;;;5066241;28;20218;-70
2021/12/07 04:41:44;;;;;;;5.00;2.23;;;3.70;99.90;;;;;;5085803;28;20179;-66
2021/12/07 04:44:10;;;;;;;4.90;2.13;;;3.80;99.90;;;;;;5090143;28;20258;-70
2021/12/07 04:46:47;;;;;;;3.63;2.47;;;3.90;99.90;;;;;;5082557;28;20514;-73
2021/12/07 05:00:10;;;;;;;2.47;2.20;;;3.90;99.90;;;;;;5081861;28;20428;-67
2021/12/07 05:02:38;;;;;;;3.63;2.00;;;4.00;99.90;;;;;;5084016;28;20421;-69
2021/12/07 05:05:05;;;;;;;4.40;2.10;;;4.00;99.90;;;;;;5086654;28;20522;-67
2021/12/07 05:07:38;;;;;;;2.50;1.93;;;4.10;99.90;;;;;;5088008;28;20794;-69
2021/12/07 05:12:45;;;;;;;5.50;2.00;;;4.10;99.90;;;;;;5096338;28;20517;-70
2021/12/07 05:15:22;;;;;;;3.30;1.90;;;4.00;99.90;;;;;;5073133;28;20864;-68
2021/12/07 05:39:27;;;;;;;3.73;1.77;;;3.80;99.90;;;;;;5089102;28;20448;-67
2021/12/07 05:41:54;;;;;;;2.57;1.90;;;3.80;99.90;;;;;;5090025;28;20448;-67
2021/12/07 05:44:19;;;;;;;7.77;2.10;;;3.70;99.90;;;;;;5106722;28;20413;-67
2021/12/07 05:46:45;;;;;;;4.80;2.20;;;3.70;99.90;;;;;;5098520;28;20410;-67
2021/12/07 05:49:11;;;;;;;3.23;1.83;;;3.70;99.90;;;;;;5089026;28;20206;-68
2021/12/07 05:51:37;;;;;;;5.50;2.20;;;3.70;99.90;;;;;;5089778;28;20244;-67
2021/12/07 05:54:03;;;;;;;2.83;2.00;;;3.60;99.90;;;;;;5088851;28;20737;-68
2021/12/07 05:56:29;;;;;;;2.33;2.00;;;3.70;99.90;;;;;;5079074;28;20846;-67
2021/12/07 05:58:55;;;;;;;7.77;2.40;;;;;;;;;;5070303;28;20458;-68
2021/12/07 06:01:20;;;;;;;3.60;2.33;;;3.80;99.90;;;;;;5070966;28;20180;-67
2021/12/07 06:03:46;;;;;;;3.17;2.27;;;3.80;99.90;;;;;;5085229;28;20429;-67
2021/12/07 06:06:11;;;;;;;3.50;2.20;;;3.90;99.90;;;;;;5072690;28;20269;-68
2021/12/07 06:08:37;;;;;;;4.83;2.90;;;4.10;99.90;;;;;;5088597;28;20256;-67
2021/12/07 06:11:02;;;;;;;4.93;2.67;;;4.40;99.90;;;;;;5086531;28;20216;-66
2021/12/07 06:13:28;;;;;;;3.70;2.33;;;4.20;99.90;;;;;;5086002;28;20270;-68
2021/12/07 06:15:53;;;;;;;2.83;2.20;;;4.20;99.90;;;;;;5088226;28;20622;-71
2021/12/07 06:18:19;;;;;;;4.80;2.30;;;4.20;99.90;;;;;;5083101;28;20776;-69
2021/12/07 06:20:45;;;;;;;4.90;3.00;;;4.20;99.90;;;;;;5068770;28;20233;-68
2021/12/07 06:23:13;;;;;;;5.73;2.30;;;4.30;99.90;;;;;;5079799;28;20604;-68
2021/12/07 06:25:39;;;;;;;11.00;2.80;;;4.30;99.90;;;;;;5074646;28;20192;-67
2021/12/07 06:28:05;;;;;;;6.70;2.73;;;4.30;99.90;;;;;;5079907;28;20443;-68
2021/12/07 06:30:30;;;;;;;3.90;2.40;;;4.20;99.90;;;;;;5075149;28;20245;-71
2021/12/07 06:32:56;;;;;;;5.97;2.93;;;4.20;99.90;;;;;;5085016;28;20169;-68
2021/12/07 06:35:22;;;;;;;6.53;2.83;;;4.20;99.90;;;;;;5069629;28;20208;-69
2021/12/07 06:37:47;;;;;;;7.80;3.10;;;4.20;99.90;;;;;;5076668;28;20191;-67
2021/12/07 06:40:13;;;;;;;6.50;2.90;;;4.20;99.90;;;;;;5073097;28;20496;-74
2021/12/07 06:42:40;;;;;;;9.37;3.33;;;4.30;99.90;;;;;;5078343;28;20223;-67
2021/12/07 06:45:08;;;;;;;7.30;2.90;;;4.60;99.90;;;;;;5080338;28;20899;-66
2021/12/07 06:47:34;;;;;;;3.40;2.60;;;4.50;99.90;;;;;;5083577;28;20931;-69
2021/12/07 06:50:00;;;;;;;3.70;2.40;;;4.50;99.90;;;;;;5077893;28;20425;-66
2021/12/07 06:52:26;;;;;;;4.43;2.53;;;4.80;99.90;;;;;;5071353;28;20651;-68
2021/12/07 06:54:51;;;;;;;5.93;2.33;;;4.50;99.90;;;;;;5085127;28;20509;-66
2021/12/07 06:57:17;;;;;;;4.80;2.33;;;4.40;99.90;;;;;;5085399;28;20178;-67
2021/12/07 06:59:42;;;;;;;7.90;2.63;;;4.40;99.90;;;;;;5085510;28;20187;-69
2021/12/07 07:02:08;;;;;;;3.53;3.13;;;4.40;99.90;;;;;;5082760;28;20599;-66
2021/12/07 07:04:33;;;;;;;6.73;2.40;;;4.30;99.90;;;;;;5077723;28;20207;-66
2021/12/07 07:06:59;;;;;;;3.87;2.00;;;4.40;99.90;;;;;;5074583;28;20214;-68
2021/12/07 07:09:24;;;;;;;6.50;2.57;;;4.40;99.90;;;;;;5072112;28;20200;-69
2021/12/07 07:11:50;;;;;;;5.60;2.13;;;4.40;99.90;;;;;;5085702;28;20266;-68
2021/12/07 07:14:16;;;;;;;4.43;2.30;;;4.50;99.90;;;;;;5072573;28;20190;-68
2021/12/07 07:16:41;;;;;;;5.70;2.37;;;4.50;99.90;;;;;;5085043;28;20214;-67
2021/12/07 07:19:07;;;;;;;3.43;2.40;;;4.50;99.90;;;;;;5076609;28;20196;-70
2021/12/07 07:21:33;;;;;;;5.77;2.80;;;4.50;99.90;;;;;;5079942;28;20215;-65
2021/12/07 07:23:58;;;;;;;5.37;2.70;;;4.60;99.90;;;;;;5083621;28;20176;-69
2021/12/07 15:25:39;;;;;;;12.10;3.90;;;5.00;99.90;;;;;;5063782;28;20560;-66
2021/12/07 15:28:04;;;;;;;8.87;3.70;;;5.20;99.90;;;;;;5063882;28;20808;-66
2021/12/07 15:30:32;;;;;;;14.90;5.77;;;5.20;99.90;;;;;;5065470;28;20418;-66
2021/12/07 15:32:57;;;;;;;17.00;5.60;;;5.40;99.90;;;;;;5066356;28;20199;-70
2021/12/07 15:35:25;;;;;;;12.17;7.03;;;5.60;99.90;;;;;;5073862;28;20529;-66
2021/12/07 15:37:51;;;;;;;10.33;5.40;;;5.80;99.90;;;;;;5071205;28;20175;-67
2021/12/07 15:40:20;;;;;;;14.03;4.13;;;5.90;99.90;;;;;;5067772;28;21027;-67
2021/12/07 15:42:46;;;;;;;7.60;3.97;;;5.90;99.90;;;;;;5055381;28;20427;-68
2021/12/07 15:45:12;;;;;;;8.83;3.60;;;5.90;99.90;;;;;;5052552;28;20520;-67
2021/12/07 15:47:46;;;;;;;16.03;4.57;;;6.10;99.90;;;;;;5063851;28;20177;-66
2021/12/07 15:50:15;;;;;;;14.37;5.07;;;6.10;99.90;;;;;;5054942;28;20427;-67
2021/12/07 15:52:52;;;;;;;11.90;5.00;;;6.10;99.90;;;;;;5064180;28;20533;-66
2021/12/07 15:55:33;;;;;;;17.07;5.60;;;6.20;99.90;;;;;;5068688;28;20416;-68
2021/12/07 15:58:06;;;;;;;6.77;4.37;;;6.10;99.90;;;;;;5068658;28;20837;-67
2021/12/07 16:00:39;;;;;;;15.00;5.53;;;6.20;99.90;;;;;;5076368;28;20416;-70
2021/12/07 16:03:08;;;;;;;15.20;4.90;;;6.10;99.90;;;;;;5073399;28;20463;-66
2021/12/07 16:05:35;;;;;;;12.30;5.60;;;6.10;99.90;;;;;;5074444;28;20429;-70
2021/12/07 16:08:09;;;;;;;12.20;5.97;;;6.20;99.90;;;;;;5063837;28;20442;-66
2021/12/07 16:10:36;;;;;;;14.57;4.80;;;6.20;99.90;;;;;;5064711;28;20399;-67
2021/12/07 16:13:08;;;;;;;7.83;4.77;;;6.20;99.90;;;;;;5063197;28;20905;-70
2021/12/07 16:15:39;;;;;;;10.77;3.80;;;6.20;99.90;;;;;;5063835;28;20415;-66
2021/12/07 16:18:05;;;;;;;9.77;3.67;;;6.20;99.90;;;;;;5059289;28;20438;-70
2021/12/07 16:20:32;;;;;;;7.20;3.80;;;6.20;99.90;;;;;;5062612;28;20423;-67
2021/12/07 16:22:57;;;;;;;6.50;3.60;;;6.20;99.90;;;;;;5066720;28;20421;-67
2021/12/07 16:25:23;;;;;;;11.30;3.63;;;6.20;99.90;;;;;;5065182;28;20442;-70
2021/12/07 16:27:49;;;;;;;12.60;3.90;;;6.20;99.90;;;;;;5056082;28;20165;-71
2021/12/07 16:30:15;;;;;;;9.23;5.07;;;6.20;99.90;;;;;;5062112;28;20173;-71
2021/12/07 16:32:41;;;;;;;13.43;4.37;;;6.20;99.90;;;;;;5071340;28;20414;-68
2021/12/07 16:35:10;;;;;;;8.80;4.00;;;6.20;99.90;;;;;;5056824;28;20262;-67
2021/12/07 16:37:36;;;;;;;9.50;3.80;;;6.10;99.90;;;;;;5048883;28;20192;-68
2021/12/07 16:40:04;;;;;;;10.20;3.40;;;6.00;99.90;;;;;;5043648;28;20767;-67
2021/12/07 16:42:30;;;;;;;13.27;4.27;;;6.00;99.90;;;;;;5059179;28;20432;-67
2021/12/07 16:44:56;;;;;;;8.73;3.77;;;5.90;99.90;;;;;;5056609;28;20463;-66
2021/12/07 16:47:22;;;;;;;7.37;4.10;;;5.90;99.90;;;;;;5046578;28;20464;-66
2021/12/07 16:49:47;;;;;;;7.03;2.90;;;5.80;99.90;;;;;;5058572;28;20447;-67
2021/12/07 16:52:13;;;;;;;11.83;3.43;;;5.80;99.90;;;;;;5065500;28;20196;-67
2021/12/07 16:54:39;;;;;;;7.80;2.80;;;5.80;99.90;;;;;;5050284;28;20255;-69
2021/12/07 16:57:05;;;;;;;7.47;3.20;;;5.80;99.90;;;;;;5035893;28;20184;-67
2021/12/07 16:59:31;;;;;;;10.30;3.33;;;5.80;99.90;;;;;;5031524;28;20289;-68
2021/12/07 17:01:57;;;;;;;8.83;4.80;;;5.70;99.90;;;;;;5047418;28;20543;-70
2021/12/07 17:04:23;;;;;;;9.10;4.97;;;5.70;99.90;;;;;;5049414;28;20204;-70
2021/12/07 17:06:49;;;;;;;20.00;4.87;;;5.60;99.90;;;;;;5048645;28;20859;-67
2021/12/07 17:09:16;;;;;;;25.93;8.40;;;5.50;99.90;;;;;;5040719;28;20208;-68
2021/12/07 17:11:43;;;;;;;19.67;10.30;;;5.50;99.90;;;;;;5057315;28;20664;-67
2021/12/07 17:14:09;;;;;;;14.90;6.20;;;5.40;99.90;;;;;;5063856;28;21010;-67
2021/12/07 17:16:34;;;;;;;15.50;7.63;;;5.30;99.90;;;;;;5061841;28;20415;-71
2021/12/07 17:19:00;;;;;;;14.43;6.20;;;5.20;99.90;;;;;;5053087;28;20197;-68
2021/12/07 17:21:26;;;;;;;14.60;7.27;;;5.20;99.90;;;;;;5058609;28;20528;-66
2021/12/07 17:23:51;;;;;;;12.43;5.00;;;5.10;99.90;;;;;;5053565;28;20204;-68
2021/12/07 17:26:17;;;;;;;13.53;5.97;;;5.10;99.90;;;;;;5060842;28;20183;-69
2021/12/07 17:28:44;;;;;;;14.37;6.90;;;5.00;99.90;;;;;;5048654;28;20739;-68
2021/12/07 17:31:10;;;;;;;8.20;5.20;;;5.00;99.90;;;;;;5046931;28;20524;-67
2021/12/07 17:33:36;;;;;;;7.60;4.27;;;5.00;99.90;;;;;;5047978;28;20533;-67
2021/12/07 17:36:03;;;;;;;8.00;4.20;;;5.00;99.90;;;;;;5058800;28;20514;-70
2021/12/07 17:38:29;;;;;;;10.37;4.97;;;4.90;99.90;;;;;;5047648;28;20444;-67
2021/12/07 17:40:55;;;;;;;29.03;14.60;;;5.20;99.90;;;;;;5036501;28;20507;-69
2021/12/07 17:43:23;;;;;;;18.27;7.10;;;5.10;99.90;;;;;;5051946;28;20509;-69
2021/12/07 17:45:49;;;;;;;10.50;5.23;;;4.90;99.90;;;;;;5052991;28;20431;-67
2021/12/07 17:48:16;;;;;;;11.83;5.20;;;4.80;99.90;;;;;;5048309;28;20581;-69
2021/12/07 17:50:43;;;;;;;6.33;4.13;;;4.80;99.90;;;;;;5047671;28;20966;-69
2021/12/07 17:53:11;;;;;;;12.10;5.77;;;4.70;99.90;;;;;;5048938;28;20412;-67
2021/12/07 17:55:44;;;;;;;10.87;4.83;;;4.70;99.90;;;;;;5044137;28;20968;-69
2021/12/07 17:58:11;;;;;;;13.37;6.00;;;4.70;99.90;;;;;;5042515;28;20469;-66
2021/12/07 18:00:38;;;;;;;11.80;5.37;;;4.80;99.90;;;;;;5056913;28;20457;-67
2021/12/07 18:03:05;;;;;;;12.40;7.00;;;4.80;99.90;;;;;;5056647;28;20424;-66
2021/12/07 18:05:31;;;;;;;14.80;8.10;;;4.70;99.90;;;;;;5061927;28;20471;-70
2021/12/07 18:07:57;;;;;;;32.37;13.20;;;4.70;99.90;;;;;;5056610;28;21005;-68
2021/12/07 18:10:24;;;;;;;24.53;8.10;;;4.70;99.90;;;;;;5054115;28;20503;-68
2021/12/07 18:12:51;;;;;;;14.63;8.17;;;4.60;99.90;;;;;;5048356;28;20660;-67
2021/12/07 18:15:18;;;;;;;20.80;8.73;;;4.60;99.90;;;;;;5059032;28;20414;-67
2021/12/07 18:17:45;;;;;;;11.70;6.87;;;4.50;99.90;;;;;;5051230;28;20506;-69
2021/12/07 18:20:14;;;;;;;13.37;6.43;;;4.50;99.90;;;;;;5067771;28;20411;-68
2021/12/07 18:22:41;;;;;;;13.63;8.83;;;4.50;99.90;;;;;;5044068;28;20489;-68
2021/12/07 18:25:08;;;;;;;19.80;9.40;;;4.50;99.90;;;;;;5051657;28;20467;-68
2021/12/07 18:27:35;;;;;;;17.23;9.50;;;4.40;99.90;;;;;;5041616;28;20451;-67
2021/12/07 18:30:07;;;;;;;10.97;5.70;;;4.40;99.90;;;;;;5041707;28;20439;-68
2021/12/07 18:32:34;;;;;;;15.40;5.90;;;4.40;99.90;;;;;;5030257;28;20432;-68
2021/12/07 18:35:00;;;;;;;13.30;6.40;;;4.40;99.90;;;;;;5029458;28;20443;-67
2021/12/07 18:37:25;;;;;;;16.90;5.50;;;4.40;99.90;;;;;;5061804;28;20427;-67
2021/12/07 18:39:51;;;;;;;8.67;4.93;;;4.40;99.90;;;;;;5050903;28;20204;-71
2021/12/07 18:42:17;;;;;;;8.37;4.70;;;;;;;;;;5039607;28;20296;-67
2021/12/07 18:44:42;;;;;;;7.87;3.90;;;4.40;99.90;;;;;;5031245;28;20312;-66
2021/12/07 18:47:08;;;;;;;10.93;5.57;;;4.50;99.90;;;;;;5031065;28;20515;-68
2021/12/07 18:49:34;;;;;;;8.50;4.30;;;4.50;99.90;;;;;;5027855;28;20191;-68
2021/12/07 18:52:00;;;;;;;6.70;4.20;;;4.50;99.90;;;;;;5040788;28;20264;-71
2021/12/07 18:54:26;;;;;;;11.17;5.00;;;4.50;99.90;;;;;;5039882;28;20705;-71
2021/12/07 18:56:52;;;;;;;12.43;5.17;;;4.50;99.90;;;;;;5041814;28;20463;-70
2021/12/07 18:59:17;;;;;;;11.57;4.50;;;4.50;99.90;;;;;;5045577;28;20439;-68
2021/12/07 19:01:43;;;;;;;7.73;4.60;;;4.50;99.90;;;;;;5044196;28;20177;-68
2021/12/07 19:04:08;;;;;;;10.20;4.30;;;4.50;99.90;;;;;;5045343;28;20695;-69
2021/12/07 19:06:34;;;;;;;10.10;4.60;;;4.50;99.90;;;;;;5052273;28;20579;-69
2021/12/07 19:08:59;;;;;;;8.50;4.53;;;4.60;99.90;;;;;;5055714;28;20497;-68
2021/12/07 19:11:27;;;;;;;11.30;5.10;;;4.60;99.90;;;;;;5045962;28;20971;-68
2021/12/07 19:13:53;;;;;;;12.80;6.00;;;4.50;99.90;;;;;;5054768;28;20283;-71
2021/12/07 19:16:19;;;;;;;14.80;5.60;;;;;;;;;;5043397;28;21012;-68
2021/12/07 19:18:45;;;;;;;9.47;5.43;;;4.50;99.90;;;;;;5038893;28;20242;-68
2021/12/07 19:21:14;;;;;;;10.63;5.77;;;4.40;99.90;;;;;;5039140;28;20427;-69
2021/12/07 19:23:42;;;;;;;9.40;5.40;;;4.40;99.90;;;;;;5039430;28;20830;-72
2021/12/07 19:26:09;;;;;;;13.50;6.13;;;4.40;99.90;;;;;;5041045;28;20483;-68
2021/12/07 19:28:35;;;;;;;8.80;4.23;;;4.40;99.90;;;;;;5042696;28;20489;-68
2021/12/07 19:31:02;;;;;;;6.90;4.73;;;4.40;99.90;;;;;;5044089;28;20520;-69
2021/12/07 19:33:32;;;;;;;10.70;4.47;;;4.40;99.90;;;;;;5027320;28;20463;-69
2021/12/07 19:35:58;;;;;;;15.20;5.00;;;4.40;99.90;;;;;;5040088;28;20443;-69
2021/12/07 19:38:26;;;;;;;8.10;4.67;;;4.30;99.90;;;;;;5040303;28;20440;-68
2021/12/07 19:40:53;;;;;;;7.80;4.40;;;4.30;99.90;;;;;;5044316;28;20412;-69
2021/12/07 19:43:20;;;;;;;8.37;4.50;;;4.30;99.90;;;;;;5049959;28;20457;-72
2021/12/07 19:45:50;;;;;;;9.10;4.80;;;4.30;99.90;;;;;;5045558;28;20481;-68
2021/12/07 19:48:16;;;;;;;11.97;4.80;;;4.20;99.90;;;;;;5045392;28;20459;-69
2021/12/07 19:51:07;;;;;;;9.27;4.57;;;4.20;99.90;;;;;;5043533;28;20420;-68
2021/12/07 19:53:45;;;;;;;9.77;4.80;;;4.20;99.90;;;;;;5026374;28;20427;-68
2021/12/07 19:56:15;;;;;;;6.50;4.33;;;4.20;99.90;;;;;;5028801;28;20841;-73
2021/12/07 19:58:42;;;;;;;10.70;4.33;;;4.20;99.90;;;;;;5027136;28;20431;-68
2021/12/07 20:01:10;;;;;;;8.40;4.60;;;4.20;99.90;;;;;;5028513;28;20444;-69
2021/12/07 20:03:37;;;;;;;7.20;3.93;;;4.20;99.90;;;;;;5029288;28;20507;-69
2021/12/07 20:06:04;;;;;;;7.97;5.10;;;4.20;99.90;;;;;;5046641;28;20415;-68
2021/12/07 20:08:30;;;;;;;13.80;4.40;;;4.30;99.90;;;;;;5046472;28;20426;-71
2021/12/07 20:10:56;;;;;;;9.83;4.30;;;4.20;99.90;;;;;;5042643;28;20424;-71
2021/12/07 20:13:23;;;;;;;10.83;4.27;;;4.20;99.90;;;;;;5056072;28;20229;-68
2021/12/07 20:15:56;;;;;;;12.90;5.10;;;4.20;99.90;;;;;;5048300;28;20254;-70
2021/12/07 20:18:22;;;;;;;6.83;4.20;;;4.20;99.90;;;;;;5048607;28;20462;-68
2021/12/07 20:20:52;;;;;;;8.10;4.97;;;4.10;99.90;;;;;;5048675;28;20482;-68
2021/12/07 20:23:39;;;;;;;10.37;4.23;;;4.10;99.90;;;;;;5028801;28;20421;-68
2021/12/07 20:26:06;;;;;;;10.93;4.93;;;4.10;99.90;;;;;;5031575;28;20423;-68
2021/12/07 20:28:33;;;;;;;5.97;4.07;;;4.10;99.90;;;;;;5029385;28;20534;-69
2021/12/07 20:30:59;;;;;;;7.60;4.50;;;4.10;99.90;;;;;;5038529;28;20442;-67
2021/12/07 20:33:25;;;;;;;7.20;4.10;;;4.00;99.90;;;;;;5030567;28;20917;-70
2021/12/07 20:35:50;;;;;;;9.10;5.00;;;4.20;99.90;;;;;;5037476;28;20246;-68
2021/12/07 20:38:16;;;;;;;9.90;4.57;;;4.00;99.90;;;;;;5049950;28;20278;-68
2021/12/07 20:40:42;;;;;;;6.53;4.10;;;4.00;99.90;;;;;;5047521;28;20226;-68
2021/12/07 20:43:09;;;;;;;8.30;3.80;;;4.00;99.90;;;;;;5056074;28;20192;-72
2021/12/07 20:45:36;;;;;;;7.90;4.13;;;4.00;99.90;;;;;;5050178;28;20198;-67
2021/12/07 20:48:02;;;;;;;12.93;3.77;;;4.10;99.90;;;;;;5039770;28;20439;-69
2021/12/07 20:50:28;;;;;;;7.87;3.90;;;4.00;99.90;;;;;;5039216;28;20431;-68
2021/12/07 20:52:54;;;;;;;11.27;3.80;;;4.00;99.90;;;;;;5033366;28;20440;-68
2021/12/07 20:55:21;;;;;;;7.73;3.93;;;4.00;99.90;;;;;;5039611;28;20192;-69
2021/12/07 20:57:46;;;;;;;9.00;3.77;;;4.10;99.90;;;;;;5038108;28;20574;-68
2021/12/07 21:00:15;;;;;;;4.97;3.57;;;4.10;99.90;;;;;;5028232;28;20495;-68
2021/12/07 21:02:43;;;;;;;8.53;4.40;;;4.10;99.90;;;;;;5045335;28;20618;-72
2021/12/07 21:05:10;;;;;;;8.70;4.50;;;4.10;99.90;;;;;;5044630;28;20462;-69
2021/12/07 21:07:36;;;;;;;7.07;3.77;;;4.10;99.90;;;;;;5031530;28;20514;-70
2021/12/07 21:10:05;;;;;;;6.97;3.43;;;4.10;99.90;;;;;;5030236;28;20443;-71
2021/12/07 21:12:31;;;;;;;7.13;3.60;;;4.10;99.90;;;;;;5056572;28;20169;-68
2021/12/07 21:14:57;;;;;;;7.63;3.90;;;4.10;99.90;;;;;;5049659;28;20419;-69
2021/12/07 21:17:23;;;;;;;10.17;4.13;;;4.10;99.90;;;;;;5043930;28;20180;-68
2021/12/07 21:19:48;;;;;;;10.07;4.40;;;4.00;99.90;;;;;;5038338;28;20444;-70
2021/12/07 21:22:14;;;;;;;6.10;3.67;;;4.00;99.90;;;;;;5027952;28;20680;-68
2021/12/07 21:24:42;;;;;;;8.17;4.23;;;4.00;99.90;;;;;;5037853;28;20774;-70
2021/12/07 21:27:09;;;;;;;10.53;4.40;;;4.00;99.90;;;;;;5043407;28;20532;-68
2021/12/07 21:29:35;;;;;;;6.00;3.60;;;3.90;99.90;;;;;;5047160;28;20470;-68
2021/12/07 21:32:01;;;;;;;10.33;4.07;;;3.90;99.90;;;;;;5047264;28;20439;-70
2021/12/07 21:34:28;;;;;;;5.80;4.07;;;3.90;99.90;;;;;;5034669;28;20438;-67
2021/12/07 21:36:55;;;;;;;5.90;3.70;;;3.90;99.90;;;;;;5049382;28;20196;-71
2021/12/07 21:39:21;;;;;;;8.30;3.97;;;3.80;99.90;;;;;;5043759;28;20440;-69
2021/12/07 21:41:47;;;;;;;9.23;3.97;;;3.80;99.90;;;;;;5042523;28;20411;-68
2021/12/07 21:44:13;;;;;;;8.50;4.00;;;3.80;99.90;;;;;;5055482;28;20567;-70
2021/12/07 21:46:39;;;;;;;5.43;3.33;;;;;;;;;;5040677;28;20181;-69
2021/12/07 21:49:05;;;;;;;6.40;3.73;;;3.90;99.90;;;;;;5044817;28;20461;-72
2021/12/07 21:51:31;;;;;;;5.97;3.27;;;3.90;99.90;;;;;;5029370;28;20488;-69
2021/12/07 21:53:57;;;;;;;5.40;3.20;;;3.90;99.90;;;;;;5027211;28;20643;-68
2021/12/07 21:56:22;;;;;;;5.80;2.90;;;4.00;99.90;;;;;;5049082;28;20452;-68
2021/12/07 21:58:48;;;;;;;5.70;3.20;;;4.00;99.90;;;;;;5027995;28;20860;-68
2021/12/07 22:01:14;;;;;;;7.53;3.40;;;4.00;99.90;;;;;;5043763;28;20726;-71
2021/12/07 22:03:40;;;;;;;6.87;3.77;;;3.90;99.90;;;;;;5045600;28;20360;-68
2021/12/07 22:06:06;;;;;;;6.30;3.53;;;4.10;99.90;;;;;;5047007;28;20655;-70
2021/12/07 22:08:32;;;;;;;10.93;3.90;;;4.10;99.90;;;;;;5046905;28;20526;-69
2021/12/07 22:10:59;;;;;;;9.47;3.83;;;4.20;99.90;;;;;;5047135;28;20230;-68
2021/12/07 22:13:27;;;;;;;4.37;3.53;;;4.30;99.90;;;;;;5058976;28;20176;-70
2021/12/07 22:15:53;;;;;;;6.80;4.10;;;4.20;99.90;;;;;;5049195;28;20420;-66
2021/12/07 22:18:18;;;;;;;6.67;4.30;;;4.30;99.90;;;;;;5028803;28;20447;-68
2021/12/07 22:20:45;;;;;;;6.20;3.97;;;4.30;99.90;;;;;;5033249;28;20182;-68
2021/12/07 22:23:12;;;;;;;5.83;3.47;;;4.30;99.90;;;;;;5028400;28;20209;-68
2021/12/07 22:25:38;;;;;;;4.83;3.13;;;4.30;99.90;;;;;;5034256;28;20555;-72